createdAt,value
2023-03-13T00:01:25.164Z,6.01
2023-03-13T00:03:57.213Z,6.06
2023-03-13T00:06:28.805Z,6.09
2023-03-13T00:09:03.863Z,6.09
2023-03-13T00:11:35.409Z,6.11
2023-03-13T00:14:07.271Z,6.11
2023-03-13T00:16:39.777Z,6.13
2023-03-13T00:19:11.773Z,6.16
2023-03-13T00:21:43.276Z,6.18
2023-03-13T00:24:15.267Z,6.14
2023-03-13T00:26:46.757Z,6.16
2023-03-13T00:29:18.597Z,6.12
2023-03-13T00:31:50.230Z,6.14
2023-03-13T00:34:22.769Z,6.17
2023-03-13T00:36:54.786Z,6.17
2023-03-13T00:39:26.605Z,6.16
2023-03-13T00:41:58.106Z,6.10
2023-03-13T00:44:29.626Z,6.14
2023-03-13T00:47:01.115Z,6.14
2023-03-13T00:49:32.629Z,6.15
2023-03-13T00:52:04.167Z,6.11
2023-03-13T00:54:35.900Z,6.10
2023-03-13T00:57:07.395Z,6.05
2023-03-13T00:59:39.077Z,6.04
2023-03-13T01:02:10.655Z,6.03
2023-03-13T01:04:42.521Z,6.01
2023-03-13T01:07:14.349Z,6.07
2023-03-13T01:09:45.846Z,6.05
2023-03-13T01:12:17.687Z,4.36
2023-03-13T01:14:49.178Z,6.11
2023-03-13T01:17:21.640Z,6.14
2023-03-13T01:19:53.153Z,6.15
2023-03-13T01:22:25.030Z,6.15
2023-03-13T01:24:56.544Z,6.17
2023-03-13T01:27:28.069Z,6.16
2023-03-13T01:29:59.557Z,6.14
2023-03-13T01:32:31.079Z,6.11
2023-03-13T01:35:02.583Z,6.12
2023-03-13T01:37:34.133Z,6.08
2023-03-13T01:40:05.653Z,6.11
2023-03-13T01:42:37.466Z,6.12
2023-03-13T01:45:08.963Z,6.10
2023-03-13T01:47:40.794Z,6.08
2023-03-13T01:50:12.308Z,6.05
2023-03-13T01:52:44.173Z,6.07
2023-03-13T01:55:16.164Z,6.04
2023-03-13T01:57:48.039Z,6.04
2023-03-13T02:00:19.963Z,6.07
2023-03-13T02:02:51.959Z,6.05
2023-03-13T02:05:23.481Z,6.09
2023-03-13T02:07:55.298Z,6.10
2023-03-13T02:10:26.808Z,6.08
2023-03-13T02:12:58.714Z,6.05
2023-03-13T02:15:30.230Z,6.05
2023-03-13T02:18:02.016Z,6.05
2023-03-13T02:20:33.564Z,6.05
2023-03-13T02:23:05.389Z,6.05
2023-03-13T02:25:36.876Z,6.07
2023-03-13T02:28:08.734Z,6.11
2023-03-13T02:30:40.221Z,6.17
2023-03-13T02:33:12.133Z,6.18
2023-03-13T02:35:43.694Z,6.15
2023-03-13T02:38:15.494Z,6.19
2023-03-13T02:40:47.001Z,6.17
2023-03-13T02:43:18.893Z,6.17
2023-03-13T02:45:50.391Z,6.18
2023-03-13T02:48:21.907Z,6.18
2023-03-13T02:50:53.395Z,6.18
2023-03-13T02:53:25.194Z,6.17
2023-03-13T02:55:56.702Z,6.15
2023-03-13T02:58:30.266Z,6.19
2023-03-13T03:01:07.892Z,6.22
2023-03-13T03:03:39.878Z,6.22
2023-03-13T03:06:11.414Z,6.31
2023-03-13T03:08:44.239Z,6.32
2023-03-13T03:11:15.754Z,6.37
2023-03-13T03:13:47.552Z,6.35
2023-03-13T03:16:19.102Z,6.34
2023-03-13T03:18:50.684Z,6.32
2023-03-13T03:21:23.791Z,6.38
2023-03-13T03:23:55.737Z,6.37
2023-03-13T03:26:27.265Z,6.40
2023-03-13T03:28:59.145Z,6.39
2023-03-13T03:31:30.664Z,6.40
2023-03-13T03:34:02.509Z,6.38
2023-03-13T03:36:34.291Z,6.42
2023-03-13T03:39:05.978Z,6.40
2023-03-13T03:41:37.470Z,6.44
2023-03-13T03:44:09.227Z,6.42
2023-03-13T03:46:40.919Z,6.45
2023-03-13T03:49:12.456Z,6.43
2023-03-13T03:51:43.959Z,6.47
2023-03-13T03:54:15.630Z,6.50
2023-03-13T03:56:47.183Z,6.49
2023-03-13T03:59:18.963Z,6.51
2023-03-13T04:01:50.622Z,6.55
2023-03-13T04:04:22.530Z,6.58
2023-03-13T04:06:54.073Z,6.61
2023-03-13T04:09:25.962Z,6.61
2023-03-13T04:11:57.469Z,6.63
2023-03-13T04:14:28.979Z,6.63
2023-03-13T04:17:00.553Z,6.68
2023-03-13T04:19:32.321Z,6.71
2023-03-13T04:22:03.886Z,6.73
2023-03-13T04:24:35.392Z,6.74
2023-03-13T04:27:06.949Z,6.78
2023-03-13T04:29:38.833Z,6.84
2023-03-13T04:32:10.399Z,6.82
2023-03-13T04:34:42.243Z,6.82
2023-03-13T04:37:13.726Z,6.83
2023-03-13T04:39:45.555Z,6.83
2023-03-13T04:42:17.073Z,6.83
2023-03-13T04:44:48.854Z,6.83
2023-03-13T04:47:20.349Z,6.85
2023-03-13T04:49:52.170Z,6.85
2023-03-13T04:52:23.691Z,6.87
2023-03-13T04:54:55.510Z,6.82
2023-03-13T04:57:27.135Z,6.81
2023-03-13T04:59:58.935Z,6.83
2023-03-13T05:02:30.430Z,6.82
2023-03-13T05:05:02.296Z,6.83
2023-03-13T05:07:33.869Z,6.79
2023-03-13T05:10:05.599Z,6.77
2023-03-13T05:12:37.102Z,6.76
2023-03-13T05:15:08.924Z,6.79
2023-03-13T05:17:40.427Z,6.77
2023-03-13T05:20:12.181Z,6.75
2023-03-13T05:22:43.693Z,6.78
2023-03-13T05:25:15.599Z,6.79
2023-03-13T05:27:47.094Z,6.77
2023-03-13T05:30:19.886Z,6.77
2023-03-13T05:32:51.713Z,6.78
2023-03-13T05:35:23.563Z,6.77
2023-03-13T05:37:55.497Z,6.78
2023-03-13T05:40:27.021Z,6.73
2023-03-13T05:42:59.682Z,6.70
2023-03-13T05:45:31.193Z,6.75
2023-03-13T05:48:02.995Z,6.72
2023-03-13T05:50:34.504Z,6.75
2023-03-13T05:53:06.329Z,6.76
2023-03-13T05:55:37.866Z,6.76
2023-03-13T05:58:09.806Z,6.80
2023-03-13T06:00:41.378Z,6.85
2023-03-13T06:03:14.456Z,6.85
2023-03-13T06:05:46.070Z,6.87
2023-03-13T06:08:18.964Z,6.89
2023-03-13T06:10:51.703Z,6.92
2023-03-13T06:13:23.569Z,6.96
2023-03-13T06:15:55.195Z,6.98
2023-03-13T06:18:27.212Z,6.97
2023-03-13T06:20:58.791Z,7.00
2023-03-13T06:23:30.351Z,7.07
2023-03-13T06:26:02.140Z,7.06
2023-03-13T06:28:33.672Z,7.12
2023-03-13T06:31:05.387Z,7.09
2023-03-13T06:33:37.241Z,7.05
2023-03-13T06:36:08.925Z,7.11
2023-03-13T06:38:40.438Z,7.10
2023-03-13T06:41:12.075Z,7.12
2023-03-13T06:43:43.586Z,7.16
2023-03-13T06:46:15.453Z,7.21
2023-03-13T06:48:46.994Z,7.30
2023-03-13T06:51:18.850Z,7.24
2023-03-13T06:53:52.300Z,7.29
2023-03-13T06:56:23.886Z,7.29
2023-03-13T06:58:56.420Z,7.32
2023-03-13T07:01:29.043Z,7.36
2023-03-13T07:04:00.994Z,7.45
2023-03-13T07:06:32.598Z,7.51
2023-03-13T07:09:05.324Z,7.48
2023-03-13T07:11:36.832Z,7.50
2023-03-13T07:14:16.347Z,7.48
2023-03-13T07:16:49.748Z,7.50
2023-03-13T07:19:21.758Z,7.70
2023-03-13T07:21:53.360Z,7.51
2023-03-13T07:24:25.346Z,7.59
2023-03-13T07:27:06.268Z,7.56
2023-03-13T07:29:39.630Z,7.60
2023-03-13T07:32:11.268Z,7.53
2023-03-13T07:34:44.937Z,7.55
2023-03-13T07:37:16.450Z,7.63
2023-03-13T07:39:48.212Z,7.73
2023-03-13T07:42:19.719Z,7.69
2023-03-13T07:44:51.593Z,7.74
2023-03-13T07:47:23.160Z,7.84
2023-03-13T07:49:55.169Z,7.88
2023-03-13T07:52:27.937Z,7.84
2023-03-13T07:54:59.800Z,8.07
2023-03-13T07:57:31.304Z,8.12
2023-03-13T08:00:04.063Z,8.06
2023-03-13T08:02:35.661Z,8.08
2023-03-13T08:05:07.775Z,8.10
2023-03-13T08:07:39.295Z,8.19
2023-03-13T08:10:11.191Z,8.08
2023-03-13T08:12:42.701Z,8.06
2023-03-13T08:15:14.653Z,8.09
2023-03-13T08:17:46.159Z,8.09
2023-03-13T08:20:19.201Z,8.10
2023-03-13T08:22:50.723Z,8.16
2023-03-13T08:25:22.516Z,8.13
2023-03-13T08:27:54.034Z,8.18
2023-03-13T08:30:25.832Z,8.16
2023-03-13T08:32:57.406Z,8.14
2023-03-13T08:35:28.978Z,8.24
2023-03-13T08:38:00.576Z,8.14
2023-03-13T08:40:33.042Z,8.20
2023-03-13T08:43:04.544Z,8.18
2023-03-13T08:45:36.411Z,8.28
2023-03-13T08:48:07.957Z,8.36
2023-03-13T08:50:39.757Z,8.43
2023-03-13T08:53:11.300Z,7.57
2023-03-13T08:55:42.826Z,8.52
2023-03-13T08:58:14.356Z,8.53
2023-03-13T09:00:46.207Z,8.56
2023-03-13T09:03:18.133Z,8.68
2023-03-13T09:05:56.028Z,8.74
2023-03-13T09:08:27.964Z,8.72
2023-03-13T09:10:59.485Z,8.81
2023-03-13T09:13:31.076Z,8.89
2023-03-13T09:16:02.974Z,8.91
2023-03-13T09:18:34.586Z,8.95
2023-03-13T09:21:06.142Z,8.94
2023-03-13T09:23:37.693Z,9.04
2023-03-13T09:26:09.258Z,9.05
2023-03-13T09:28:42.194Z,9.09
2023-03-13T09:31:14.766Z,9.04
2023-03-13T09:33:46.399Z,8.98
2023-03-13T09:36:21.255Z,8.98
2023-03-13T09:38:53.466Z,9.03
2023-03-13T09:41:25.323Z,9.04
2023-03-13T09:43:56.831Z,9.13
2023-03-13T09:46:28.463Z,9.25
2023-03-13T09:49:00.092Z,9.31
2023-03-13T09:51:31.673Z,9.46
2023-03-13T09:54:03.205Z,9.49
2023-03-13T09:56:34.958Z,9.54
2023-03-13T09:59:06.547Z,9.62
2023-03-13T10:01:38.660Z,9.67
2023-03-13T10:04:10.256Z,9.67
2023-03-13T10:06:42.195Z,9.62
2023-03-13T10:09:13.722Z,9.64
2023-03-13T10:11:45.529Z,9.70
2023-03-13T10:14:17.041Z,9.58
2023-03-13T10:16:48.891Z,9.70
2023-03-13T10:19:20.426Z,9.92
2023-03-13T10:21:52.365Z,10.09
2023-03-13T10:24:23.909Z,10.13
2023-03-13T10:26:55.737Z,10.28
2023-03-13T10:29:27.245Z,10.35
2023-03-13T10:31:59.377Z,10.48
2023-03-13T10:34:30.910Z,10.53
2023-03-13T10:37:02.909Z,10.47
2023-03-13T10:39:34.420Z,10.64
2023-03-13T10:42:06.061Z,10.95
2023-03-13T10:44:37.568Z,10.96
2023-03-13T10:47:09.408Z,10.89
2023-03-13T10:49:40.943Z,11.06
2023-03-13T10:52:12.769Z,11.22
2023-03-13T10:54:44.444Z,11.38
2023-03-13T10:57:16.298Z,11.51
2023-03-13T10:59:47.797Z,11.70
2023-03-13T11:02:19.716Z,11.55
2023-03-13T11:04:53.944Z,11.53
2023-03-13T11:07:25.806Z,11.73
2023-03-13T11:09:57.342Z,11.89
2023-03-13T11:12:28.925Z,11.82
2023-03-13T11:15:00.661Z,12.09
2023-03-13T11:17:32.222Z,12.40
2023-03-13T11:20:04.232Z,12.19
2023-03-13T11:22:35.946Z,12.34
2023-03-13T11:25:07.454Z,12.48
2023-03-13T11:27:39.512Z,12.47
2023-03-13T11:30:11.037Z,12.95
2023-03-13T11:32:43.226Z,12.61
2023-03-13T11:35:14.829Z,12.82
2023-03-13T11:37:46.701Z,13.17
2023-03-13T11:40:19.871Z,13.35
2023-03-13T11:42:51.414Z,13.44
2023-03-13T11:45:23.343Z,13.53
2023-03-13T11:47:54.970Z,13.39
2023-03-13T11:50:26.795Z,13.35
2023-03-13T11:52:58.337Z,13.45
2023-03-13T11:55:30.004Z,13.24
2023-03-13T11:58:01.511Z,13.52
2023-03-13T12:00:33.069Z,13.43
2023-03-13T12:03:05.896Z,13.33
2023-03-13T12:05:37.730Z,13.37
2023-03-13T12:08:09.330Z,13.58
2023-03-13T12:10:41.151Z,13.47
2023-03-13T12:13:12.811Z,14.00
2023-03-13T12:15:44.720Z,14.39
2023-03-13T12:18:16.282Z,14.23
2023-03-13T12:20:50.320Z,14.38
2023-03-13T12:23:22.117Z,14.79
2023-03-13T12:25:53.744Z,14.67
2023-03-13T12:28:25.356Z,14.66
2023-03-13T12:30:56.892Z,15.38
2023-03-13T12:33:28.403Z,15.61
2023-03-13T12:36:00.248Z,15.81
2023-03-13T12:38:31.782Z,15.58
2023-03-13T12:41:03.653Z,15.45
2023-03-13T12:43:35.159Z,15.09
2023-03-13T12:46:07.187Z,15.26
2023-03-13T12:48:38.820Z,15.44
2023-03-13T12:51:10.696Z,15.44
2023-03-13T12:53:42.383Z,15.57
2023-03-13T12:56:14.438Z,15.82
2023-03-13T12:58:45.934Z,15.98
2023-03-13T13:01:17.522Z,16.23
2023-03-13T13:03:49.068Z,16.84
2023-03-13T13:06:20.698Z,16.54
2023-03-13T13:08:52.305Z,16.30
2023-03-13T13:11:24.496Z,16.64
2023-03-13T13:13:56.067Z,17.21
2023-03-13T13:16:27.600Z,17.53
2023-03-13T13:18:59.152Z,16.72
2023-03-13T13:21:32.988Z,16.31
2023-03-13T13:24:04.532Z,16.24
2023-03-13T13:26:37.734Z,16.25
2023-03-13T13:29:09.287Z,16.31
2023-03-13T13:31:41.399Z,16.76
2023-03-13T13:34:12.990Z,16.88
2023-03-13T13:36:44.996Z,16.43
2023-03-13T13:39:16.602Z,17.03
2023-03-13T13:41:48.483Z,16.99
2023-03-13T13:44:20.041Z,16.83
2023-03-13T13:46:51.995Z,16.45
2023-03-13T13:49:23.713Z,16.24
2023-03-13T13:51:55.522Z,16.04
2023-03-13T13:54:27.034Z,16.11
2023-03-13T13:56:58.779Z,16.33
2023-03-13T13:59:30.339Z,16.22
2023-03-13T14:02:02.187Z,16.13
2023-03-13T14:04:33.785Z,15.91
2023-03-13T14:07:05.414Z,16.12
2023-03-13T14:09:37.466Z,16.26
2023-03-13T14:12:09.507Z,17.03
2023-03-13T14:14:41.438Z,16.91
2023-03-13T14:17:13.356Z,17.04
2023-03-13T14:19:44.891Z,16.85
2023-03-13T14:22:16.508Z,16.22
2023-03-13T14:24:48.026Z,16.54
2023-03-13T14:27:19.848Z,16.58
2023-03-13T14:29:51.428Z,16.83
2023-03-13T14:32:23.023Z,16.34
2023-03-13T14:34:54.516Z,16.36
2023-03-13T14:37:26.410Z,16.22
2023-03-13T14:39:57.913Z,16.16
2023-03-13T14:42:29.455Z,16.21
2023-03-13T14:45:01.041Z,15.99
2023-03-13T14:47:32.641Z,16.28
2023-03-13T14:50:04.481Z,16.18
2023-03-13T14:52:36.165Z,16.24
2023-03-13T14:55:08.450Z,16.20
2023-03-13T14:57:40.019Z,16.22
2023-03-13T15:00:11.872Z,16.15
2023-03-13T15:02:43.426Z,16.16
2023-03-13T15:05:14.942Z,16.25
2023-03-13T15:07:46.469Z,16.21
2023-03-13T15:10:18.018Z,16.11
2023-03-13T15:12:49.904Z,16.46
2023-03-13T15:15:21.410Z,16.26
2023-03-13T15:17:53.285Z,16.07
2023-03-13T15:20:24.827Z,16.18
2023-03-13T15:22:56.528Z,16.23
2023-03-13T15:25:28.086Z,16.20
2023-03-13T15:27:59.817Z,16.30
2023-03-13T15:30:31.352Z,16.18
2023-03-13T15:33:03.242Z,16.17
2023-03-13T15:35:35.450Z,15.95
2023-03-13T15:38:07.228Z,15.94
2023-03-13T15:40:38.854Z,15.84
2023-03-13T15:43:10.720Z,15.68
2023-03-13T15:45:42.250Z,15.69
2023-03-13T15:48:14.079Z,15.70
2023-03-13T15:50:45.595Z,15.67
2023-03-13T15:53:17.498Z,15.70
2023-03-13T15:55:49.363Z,15.56
2023-03-13T15:58:20.905Z,15.51
2023-03-13T16:00:52.538Z,15.54
2023-03-13T16:03:25.327Z,15.44
2023-03-13T16:05:56.911Z,15.49
2023-03-13T16:08:36.438Z,15.41
2023-03-13T16:11:08.656Z,15.31
2023-03-13T16:13:40.565Z,15.18
2023-03-13T16:16:12.113Z,15.17
2023-03-13T16:18:43.936Z,15.09
2023-03-13T16:21:15.453Z,15.08
2023-03-13T16:23:47.432Z,15.01
2023-03-13T16:26:19.032Z,15.09
2023-03-13T16:28:51.117Z,14.97
2023-03-13T16:31:22.736Z,15.01
2023-03-13T16:33:54.802Z,14.92
2023-03-13T16:36:28.107Z,14.84
2023-03-13T16:39:00.015Z,14.83
2023-03-13T16:41:32.704Z,14.83
2023-03-13T16:44:04.389Z,14.79
2023-03-13T16:46:35.962Z,14.75
2023-03-13T16:49:07.559Z,14.70
2023-03-13T16:51:39.077Z,14.71
2023-03-13T16:54:12.928Z,14.64
2023-03-13T16:56:44.743Z,14.60
2023-03-13T16:59:16.729Z,14.59
2023-03-13T17:01:48.472Z,14.52
2023-03-13T17:04:20.020Z,14.48
2023-03-13T17:06:52.981Z,14.46
2023-03-13T17:09:24.485Z,14.42
2023-03-13T17:11:56.265Z,14.36
2023-03-13T17:14:27.783Z,14.37
2023-03-13T17:16:59.868Z,14.30
2023-03-13T17:19:32.271Z,14.22
2023-03-13T17:22:04.215Z,14.21
2023-03-13T17:24:35.729Z,14.19
2023-03-13T17:27:07.388Z,14.14
2023-03-13T17:29:38.885Z,14.15
2023-03-13T17:32:10.691Z,14.11
2023-03-13T17:34:42.256Z,14.11
2023-03-13T17:37:14.142Z,14.10
2023-03-13T17:39:45.736Z,14.09
2023-03-13T17:42:17.608Z,14.11
2023-03-13T17:44:49.123Z,14.15
2023-03-13T17:47:20.694Z,14.08
2023-03-13T17:49:52.227Z,14.06
2023-03-13T17:52:24.090Z,14.08
2023-03-13T17:54:55.609Z,14.03
2023-03-13T17:57:27.140Z,13.98
2023-03-13T17:59:58.675Z,13.98
2023-03-13T18:02:30.198Z,14.01
2023-03-13T18:05:01.764Z,13.99
2023-03-13T18:07:33.476Z,13.95
2023-03-13T18:10:05.100Z,13.96
2023-03-13T18:12:37.101Z,13.99
2023-03-13T18:15:08.668Z,13.30
2023-03-13T18:17:40.669Z,14.08
2023-03-13T18:20:12.214Z,14.11
2023-03-13T18:22:44.205Z,14.11
2023-03-13T18:25:15.762Z,13.43
2023-03-13T18:27:47.835Z,14.15
2023-03-13T18:30:19.368Z,14.17
2023-03-13T18:32:51.294Z,14.16
2023-03-13T18:35:22.828Z,14.15
2023-03-13T18:37:54.623Z,14.15
2023-03-13T18:40:26.185Z,14.15
2023-03-13T18:42:58.141Z,12.10
2023-03-13T18:45:29.734Z,14.16
2023-03-13T18:48:01.719Z,14.12
2023-03-13T18:50:33.207Z,14.10
2023-03-13T18:53:04.768Z,14.05
2023-03-13T18:55:36.300Z,14.04
2023-03-13T18:58:08.206Z,14.01
2023-03-13T19:00:39.833Z,14.00
2023-03-13T19:03:11.645Z,13.95
2023-03-13T19:05:43.128Z,13.95
2023-03-13T19:08:14.758Z,13.89
2023-03-13T19:10:46.341Z,13.89
2023-03-13T19:13:18.079Z,13.81
2023-03-13T19:15:49.579Z,13.84
2023-03-13T19:18:21.188Z,13.81
2023-03-13T19:20:52.728Z,13.81
2023-03-13T19:23:24.926Z,13.82
2023-03-13T19:25:56.920Z,13.76
2023-03-13T19:28:28.492Z,13.71
2023-03-13T19:30:59.977Z,13.66
2023-03-13T19:33:31.475Z,13.67
2023-03-13T19:36:03.062Z,13.66
2023-03-13T19:38:34.609Z,13.62
2023-03-13T19:41:06.107Z,13.65
2023-03-13T19:43:37.830Z,13.65
2023-03-13T19:46:09.373Z,13.62
2023-03-13T19:48:41.353Z,13.56
2023-03-13T19:51:12.954Z,13.55
2023-03-13T19:53:44.824Z,13.52
2023-03-13T19:56:17.223Z,13.46
2023-03-13T19:58:49.106Z,13.42
2023-03-13T20:01:20.708Z,13.39
2023-03-13T20:03:52.711Z,13.39
2023-03-13T20:06:24.309Z,13.37
2023-03-13T20:08:56.026Z,13.37
2023-03-13T20:11:27.537Z,13.37
2023-03-13T20:13:59.513Z,13.35
2023-03-13T20:16:33.630Z,13.36
2023-03-13T20:19:06.533Z,13.30
2023-03-13T20:21:41.111Z,13.25
2023-03-13T20:24:12.660Z,13.23
2023-03-13T20:26:44.199Z,13.25
2023-03-13T20:29:16.080Z,12.19
2023-03-13T20:31:47.614Z,13.29
2023-03-13T20:34:19.442Z,13.28
2023-03-13T20:36:53.464Z,13.29
2023-03-13T20:39:25.543Z,13.28
2023-03-13T20:41:57.441Z,13.28
2023-03-13T20:44:29.129Z,13.32
2023-03-13T20:47:00.711Z,13.36
2023-03-13T20:49:32.256Z,13.33
2023-03-13T20:52:04.562Z,13.36
2023-03-13T20:54:36.394Z,13.33
2023-03-13T20:57:08.705Z,13.32
2023-03-13T20:59:41.501Z,13.27
2023-03-13T21:02:13.016Z,13.29
2023-03-13T21:04:44.564Z,13.25
2023-03-13T21:07:16.120Z,13.24
2023-03-13T21:09:48.123Z,13.24
2023-03-13T21:12:19.667Z,13.23
2023-03-13T21:14:53.780Z,13.15
2023-03-13T21:17:25.786Z,13.18
2023-03-13T21:19:57.595Z,13.20
2023-03-13T21:22:30.175Z,13.25
2023-03-13T21:25:02.729Z,13.25
2023-03-13T21:27:35.468Z,13.27
2023-03-13T21:30:07.231Z,13.23
2023-03-13T21:32:38.752Z,13.22
2023-03-13T21:35:10.673Z,13.30
2023-03-13T21:37:42.793Z,13.30
2023-03-13T21:40:14.412Z,13.32
2023-03-13T21:42:45.910Z,13.31
2023-03-13T21:45:17.724Z,13.27
2023-03-13T21:47:49.284Z,13.27
2023-03-13T21:50:21.108Z,13.21
2023-03-13T21:52:52.603Z,13.21
2023-03-13T21:55:24.118Z,13.20
2023-03-13T21:57:55.830Z,13.14
2023-03-13T22:00:27.507Z,13.15
2023-03-13T22:02:59.018Z,13.13
2023-03-13T22:05:30.604Z,13.12
2023-03-13T22:08:02.086Z,13.06
2023-03-13T22:10:33.603Z,13.10
2023-03-13T22:13:05.173Z,13.11
2023-03-13T22:15:37.045Z,13.11
2023-03-13T22:18:08.545Z,13.06
2023-03-13T22:20:40.591Z,13.09
2023-03-13T22:23:12.120Z,13.10
2023-03-13T22:25:43.998Z,13.08
2023-03-13T22:28:15.493Z,13.07
2023-03-13T22:30:47.295Z,13.07
2023-03-13T22:33:18.815Z,13.07
2023-03-13T22:35:52.728Z,13.05
2023-03-13T22:38:24.337Z,13.08
2023-03-13T22:40:56.142Z,13.06
2023-03-13T22:43:27.789Z,13.06
2023-03-13T22:45:59.537Z,13.07
2023-03-13T22:48:31.524Z,13.05
2023-03-13T22:51:03.396Z,13.06
2023-03-13T22:53:34.970Z,13.05
2023-03-13T22:56:06.671Z,13.03
2023-03-13T22:58:38.174Z,12.99
2023-03-13T23:01:09.929Z,12.92
2023-03-13T23:03:41.481Z,12.89
2023-03-13T23:06:13.404Z,12.83
2023-03-13T23:08:44.926Z,12.82
2023-03-13T23:11:16.756Z,12.76
2023-03-13T23:13:48.822Z,12.73
2023-03-13T23:16:20.337Z,12.66
2023-03-13T23:18:52.437Z,12.57
2023-03-13T23:21:23.971Z,12.55
2023-03-13T23:23:55.820Z,12.47
2023-03-13T23:26:27.370Z,12.43
2023-03-13T23:28:59.045Z,12.37
2023-03-13T23:31:30.548Z,12.33
2023-03-13T23:34:02.296Z,12.28
2023-03-13T23:36:33.804Z,12.25
2023-03-13T23:39:05.700Z,12.24
2023-03-13T23:41:37.478Z,12.17
2023-03-13T23:44:09.176Z,12.15
2023-03-13T23:46:40.701Z,12.13
2023-03-13T23:49:15.505Z,12.10
2023-03-13T23:51:47.000Z,12.07
2023-03-13T23:54:18.989Z,12.03
2023-03-13T23:56:50.495Z,12.00
2023-03-13T23:59:22.345Z,11.98
